Yorba Linda, CA (92885)

2:35 AM PDT on August 28, 2015 (GMT -0700)
Imperial Hwy/YL Blvd | | Change Station
CLOSE
Current Station
Personal Weather Station
Location: YORBA LINDA, CA
Elevation: 370 ft
Nearby Weather Stations

Elev 370 ft 33.89 °N, 117.82 °W | Updated 9 minutes ago

Clear
Clear
72.1 °F
Feels Like 75 °F
N
0.0
Wind Variable Wind from NE
Gusts 0.0 mph

Today
High -- | Low -- °F
--% Chance of Precip.
Yesterday
High -- | Low -- °F
Precip. -- in
6:22 AM 7:22 PM
Waxing Gibbous, 97% visible
Pressure 29.88 in
Visibility 10.0 miles
Clouds Clear
Heat Index 75 °F
Dew Point 61 °F
Humidity 68%
Rainfall 0.00 in
Snow Depth Not available.
UV 0 out of 12
Pollen 5.50 out of 12
Air Quality Not available.
Flu Activity Not available.
METAR KFUL 280853Z 00000KT 10SM CLR 24/19 A2988 RMK AO2 SLP117 T02390194 58009
Pressure 29.88 in
Visibility 10.0 miles
Clouds Clear
Heat Index 75 °F
Dew Point 61 °F
Humidity 68%
Rainfall 0.00 in
Snow Depth Not available.
UV 0 out of 12
Pollen 5.50 out of 12
Air Quality Not available.
Flu Activity Not available.
METAR KFUL 280853Z 00000KT 10SM CLR 24/19 A2988 RMK AO2 SLP117 T02390194 58009

10-Day Weather Forecast

×

Almanac

Astronomy

Aug. 28, 2015 Rise Set
Actual Time
Civil Twilight
Nautical Twilight
Astronomical Twilight
Moon
Length of Visible Light
Length of Day
Tomorrow will be .
, % of the Moon is Illuminated

Today's Extremes

State Highs State Lows

Community

WunderPhotos

Upload Photos

1,850,352 photos uploaded!

WunderBlogs® & News

Nearby

Air Quality

  Air Quality AQ Index Pollutant
Not available.

Snow Depth

Station Depth Elevation

Earthquake Activity

City Distance Mag. Time & Date
Minimum magnitude displayed is 2.5.

Coastal Water Temperatures

Place Temperature

Stations

Nearby Weather Stations

Station Location Temp. Windchill Dew Point Humidity Wind Precip. Elev Updated Type